sensor_id;sensor_type;location;lat;lon;timestamp;pressure;altitude;pressure_sealevel;temperature;humidity
56912;BME280;42800;53.928;27.662;2023-01-25T00:00:40;100329.91;;;-3.90;100.00
56912;BME280;42800;53.928;27.662;2023-01-25T00:03:06;100305.25;;;-3.92;100.00
56912;BME280;42800;53.928;27.662;2023-01-25T00:05:32;100302.50;;;-3.81;100.00
56912;BME280;42800;53.928;27.662;2023-01-25T00:07:58;100293.72;;;-3.93;100.00
56912;BME280;42800;53.928;27.662;2023-01-25T00:10:25;100297.56;;;-4.17;100.00
56912;BME280;42800;53.928;27.662;2023-01-25T00:12:52;100310.13;;;-4.18;100.00
56912;BME280;42800;53.928;27.662;2023-01-25T00:15:18;100320.81;;;-4.06;100.00
56912;BME280;42800;53.928;27.662;2023-01-25T00:17:44;100334.91;;;-4.11;100.00
56912;BME280;42800;53.928;27.662;2023-01-25T00:20:10;100345.91;;;-3.95;100.00
56912;BME280;42800;53.928;27.662;2023-01-25T00:22:37;100313.66;;;-4.00;100.00
56912;BME280;42800;53.928;27.662;2023-01-25T00:25:03;100294.72;;;-4.11;100.00
56912;BME280;42800;53.928;27.662;2023-01-25T00:27:30;100306.34;;;-4.05;100.00
56912;BME280;42800;53.928;27.662;2023-01-25T00:29:57;100303.59;;;-3.93;100.00
56912;BME280;42800;53.928;27.662;2023-01-25T00:32:35;100283.22;;;-3.94;100.00
56912;BME280;42800;53.928;27.662;2023-01-25T00:35:02;100271.09;;;-4.14;100.00
56912;BME280;42800;53.928;27.662;2023-01-25T00:37:34;100284.59;;;-4.09;100.00
56912;BME280;42800;53.928;27.662;2023-01-25T00:40:01;100306.06;;;-3.92;100.00
56912;BME280;42800;53.928;27.662;2023-01-25T00:42:28;100312.19;;;-3.80;100.00
56912;BME280;42800;53.928;27.662;2023-01-25T00:44:54;100292.69;;;-3.75;100.00
56912;BME280;42800;53.928;27.662;2023-01-25T00:47:21;100300.78;;;-3.87;100.00
56912;BME280;42800;53.928;27.662;2023-01-25T00:49:47;100322.97;;;-3.74;100.00
56912;BME280;42800;53.928;27.662;2023-01-25T00:52:14;100354.50;;;-3.48;100.00
56912;BME280;42800;53.928;27.662;2023-01-25T00:54:40;100316.81;;;-3.58;100.00
56912;BME280;42800;53.928;27.662;2023-01-25T00:57:07;100309.56;;;-3.58;100.00
56912;BME280;42800;53.928;27.662;2023-01-25T00:59:33;100279.75;;;-3.61;100.00
56912;BME280;42800;53.928;27.662;2023-01-25T01:02:00;100265.94;;;-3.70;100.00
56912;BME280;42800;53.928;27.662;2023-01-25T01:04:27;100241.03;;;-3.70;100.00
56912;BME280;42800;53.928;27.662;2023-01-25T01:06:54;100224.88;;;-3.75;100.00
56912;BME280;42800;53.928;27.662;2023-01-25T01:09:21;100232.59;;;-3.96;100.00
56912;BME280;42800;53.928;27.662;2023-01-25T01:11:48;100244.13;;;-3.79;100.00
56912;BME280;42800;53.928;27.662;2023-01-25T01:14:14;100221.47;;;-3.88;100.00
56912;BME280;42800;53.928;27.662;2023-01-25T01:16:40;100223.50;;;-3.78;100.00
56912;BME280;42800;53.928;27.662;2023-01-25T01:19:07;100233.41;;;-3.79;100.00
56912;BME280;42800;53.928;27.662;2023-01-25T01:21:33;100247.03;;;-3.63;100.00
56912;BME280;42800;53.928;27.662;2023-01-25T01:24:00;100235.31;;;-3.57;100.00
56912;BME280;42800;53.928;27.662;2023-01-25T01:26:26;100228.00;;;-3.45;100.00
56912;BME280;42800;53.928;27.662;2023-01-25T01:28:52;100198.03;;;-3.42;100.00
56912;BME280;42800;53.928;27.662;2023-01-25T01:31:20;100179.84;;;-3.40;100.00
56912;BME280;42800;53.928;27.662;2023-01-25T01:33:48;100187.41;;;-3.53;100.00
56912;BME280;42800;53.928;27.662;2023-01-25T01:36:17;100176.31;;;-3.40;100.00
56912;BME280;42800;53.928;27.662;2023-01-25T01:38:44;100173.00;;;-3.47;100.00
56912;BME280;42800;53.928;27.662;2023-01-25T01:41:11;100185.38;;;-3.46;100.00
56912;BME280;42800;53.928;27.662;2023-01-25T01:43:38;100189.41;;;-3.44;100.00
56912;BME280;42800;53.928;27.662;2023-01-25T01:46:05;100218.84;;;-3.49;100.00
56912;BME280;42800;53.928;27.662;2023-01-25T01:48:37;100212.13;;;-3.85;100.00
56912;BME280;42800;53.928;27.662;2023-01-25T01:51:13;100257.03;;;-3.59;100.00
56912;BME280;42800;53.928;27.662;2023-01-25T01:53:41;100262.88;;;-3.45;100.00
56912;BME280;42800;53.928;27.662;2023-01-25T01:56:12;100243.47;;;-3.69;100.00
56912;BME280;42800;53.928;27.662;2023-01-25T01:58:41;100260.53;;;-3.58;100.00
56912;BME280;42800;53.928;27.662;2023-01-25T02:01:09;100262.25;;;-3.30;100.00
56912;BME280;42800;53.928;27.662;2023-01-25T02:03:36;100234.78;;;-3.59;100.00
56912;BME280;42800;53.928;27.662;2023-01-25T02:06:08;100224.69;;;-3.52;100.00
56912;BME280;42800;53.928;27.662;2023-01-25T02:08:36;100220.56;;;-3.60;100.00
56912;BME280;42800;53.928;27.662;2023-01-25T02:11:06;100202.94;;;-3.56;100.00
56912;BME280;42800;53.928;27.662;2023-01-25T02:13:34;100186.19;;;-3.46;100.00
56912;BME280;42800;53.928;27.662;2023-01-25T02:16:02;100200.44;;;-3.62;100.00
56912;BME280;42800;53.928;27.662;2023-01-25T02:18:29;100226.94;;;-3.44;100.00
56912;BME280;42800;53.928;27.662;2023-01-25T02:20:57;100221.72;;;-3.34;100.00
56912;BME280;42800;53.928;27.662;2023-01-25T02:23:29;100223.81;;;-3.19;100.00
56912;BME280;42800;53.928;27.662;2023-01-25T02:26:00;100201.09;;;-3.11;100.00
56912;BME280;42800;53.928;27.662;2023-01-25T02:28:31;100165.44;;;-3.12;100.00
56912;BME280;42800;53.928;27.662;2023-01-25T02:30:58;100146.66;;;-3.12;100.00
56912;BME280;42800;53.928;27.662;2023-01-25T02:33:26;100137.09;;;-3.24;100.00
56912;BME280;42800;53.928;27.662;2023-01-25T02:35:56;100124.00;;;-2.99;100.00
56912;BME280;42800;53.928;27.662;2023-01-25T02:38:24;100114.88;;;-2.98;100.00
56912;BME280;42800;53.928;27.662;2023-01-25T02:40:54;100100.66;;;-2.98;100.00
56912;BME280;42800;53.928;27.662;2023-01-25T02:43:27;100100.34;;;-3.02;100.00
56912;BME280;42800;53.928;27.662;2023-01-25T02:45:58;100093.88;;;-3.06;100.00
56912;BME280;42800;53.928;27.662;2023-01-25T02:48:25;100090.44;;;-3.23;100.00
56912;BME280;42800;53.928;27.662;2023-01-25T02:50:51;100108.19;;;-3.22;100.00
56912;BME280;42800;53.928;27.662;2023-01-25T02:53:17;100116.88;;;-3.10;100.00
56912;BME280;42800;53.928;27.662;2023-01-25T02:55:44;100125.84;;;-3.26;100.00
56912;BME280;42800;53.928;27.662;2023-01-25T02:58:10;100120.63;;;-3.11;100.00
56912;BME280;42800;53.928;27.662;2023-01-25T03:00:37;100108.59;;;-3.09;100.00
56912;BME280;42800;53.928;27.662;2023-01-25T03:03:03;100114.53;;;-3.06;100.00
56912;BME280;42800;53.928;27.662;2023-01-25T03:05:29;100119.03;;;-3.34;100.00
56912;BME280;42800;53.928;27.662;2023-01-25T03:07:55;100135.59;;;-3.37;100.00
56912;BME280;42800;53.928;27.662;2023-01-25T03:10:22;100154.97;;;-3.13;100.00
56912;BME280;42800;53.928;27.662;2023-01-25T03:12:48;100142.16;;;-3.06;100.00
56912;BME280;42800;53.928;27.662;2023-01-25T03:15:14;100130.94;;;-3.03;100.00
56912;BME280;42800;53.928;27.662;2023-01-25T03:17:41;100134.22;;;-2.96;100.00
56912;BME280;42800;53.928;27.662;2023-01-25T03:20:08;100131.25;;;-2.99;100.00
56912;BME280;42800;53.928;27.662;2023-01-25T03:22:35;100117.53;;;-3.03;100.00
56912;BME280;42800;53.928;27.662;2023-01-25T03:25:01;100113.19;;;-3.04;100.00
56912;BME280;42800;53.928;27.662;2023-01-25T03:27:28;100117.75;;;-3.04;100.00
56912;BME280;42800;53.928;27.662;2023-01-25T03:29:55;100120.22;;;-3.03;100.00
56912;BME280;42800;53.928;27.662;2023-01-25T03:32:21;100153.22;;;-3.02;100.00
56912;BME280;42800;53.928;27.662;2023-01-25T03:34:48;100144.66;;;-2.99;100.00
56912;BME280;42800;53.928;27.662;2023-01-25T03:37:15;100159.38;;;-3.02;100.00
56912;BME280;42800;53.928;27.662;2023-01-25T03:39:41;100212.91;;;-3.12;100.00
56912;BME280;42800;53.928;27.662;2023-01-25T03:42:07;100228.63;;;-2.99;100.00
56912;BME280;42800;53.928;27.662;2023-01-25T03:44:33;100224.06;;;-2.98;100.00
56912;BME280;42800;53.928;27.662;2023-01-25T03:47:00;100207.97;;;-2.98;100.00
56912;BME280;42800;53.928;27.662;2023-01-25T03:49:26;100223.13;;;-2.87;100.00
56912;BME280;42800;53.928;27.662;2023-01-25T03:51:53;100227.19;;;-2.85;100.00
56912;BME280;42800;53.928;27.662;2023-01-25T03:54:19;100244.78;;;-2.72;100.00
56912;BME280;42800;53.928;27.662;2023-01-25T03:56:45;100243.59;;;-2.81;100.00
56912;BME280;42800;53.928;27.662;2023-01-25T03:59:12;100243.69;;;-2.76;100.00
56912;BME280;42800;53.928;27.662;2023-01-25T04:01:38;100218.94;;;-2.78;100.00
56912;BME280;42800;53.928;27.662;2023-01-25T04:04:04;100208.47;;;-3.01;100.00
56912;BME280;42800;53.928;27.662;2023-01-25T04:06:30;100230.50;;;-2.77;100.00
56912;BME280;42800;53.928;27.662;2023-01-25T04:08:57;100223.31;;;-2.72;100.00
56912;BME280;42800;53.928;27.662;2023-01-25T04:11:23;100195.28;;;-2.59;100.00
56912;BME280;42800;53.928;27.662;2023-01-25T04:13:50;100187.03;;;-2.74;100.00
56912;BME280;42800;53.928;27.662;2023-01-25T04:16:16;100178.66;;;-2.56;100.00
56912;BME280;42800;53.928;27.662;2023-01-25T04:18:42;100147.56;;;-2.79;100.00
56912;BME280;42800;53.928;27.662;2023-01-25T04:21:08;100146.78;;;-2.74;100.00
56912;BME280;42800;53.928;27.662;2023-01-25T04:23:34;100195.28;;;-2.81;100.00
56912;BME280;42800;53.928;27.662;2023-01-25T04:26:02;100199.66;;;-2.97;100.00
56912;BME280;42800;53.928;27.662;2023-01-25T04:28:31;100198.16;;;-2.88;100.00
56912;BME280;42800;53.928;27.662;2023-01-25T04:30:57;100211.59;;;-2.66;100.00
56912;BME280;42800;53.928;27.662;2023-01-25T04:33:24;100176.19;;;-2.63;100.00
56912;BME280;42800;53.928;27.662;2023-01-25T04:35:51;100165.88;;;-2.71;100.00
56912;BME280;42800;53.928;27.662;2023-01-25T04:38:17;100153.34;;;-2.65;100.00
56912;BME280;42800;53.928;27.662;2023-01-25T04:40:44;100121.25;;;-2.77;100.00
56912;BME280;42800;53.928;27.662;2023-01-25T04:43:12;100138.84;;;-2.64;100.00
56912;BME280;42800;53.928;27.662;2023-01-25T04:45:38;100135.72;;;-2.56;100.00
56912;BME280;42800;53.928;27.662;2023-01-25T04:48:06;100103.34;;;-2.71;100.00
56912;BME280;42800;53.928;27.662;2023-01-25T04:50:34;100109.31;;;-2.64;100.00
56912;BME280;42800;53.928;27.662;2023-01-25T04:53:00;100092.41;;;-2.65;100.00
56912;BME280;42800;53.928;27.662;2023-01-25T04:55:27;100075.72;;;-2.67;100.00
56912;BME280;42800;53.928;27.662;2023-01-25T04:57:53;100075.78;;;-2.62;100.00
56912;BME280;42800;53.928;27.662;2023-01-25T05:00:20;100084.41;;;-2.59;100.00
56912;BME280;42800;53.928;27.662;2023-01-25T05:02:47;100104.50;;;-2.62;100.00
56912;BME280;42800;53.928;27.662;2023-01-25T05:05:13;100094.94;;;-2.53;100.00
56912;BME280;42800;53.928;27.662;2023-01-25T05:07:39;100101.94;;;-2.47;100.00
56912;BME280;42800;53.928;27.662;2023-01-25T05:10:07;100094.97;;;-2.48;100.00
56912;BME280;42800;53.928;27.662;2023-01-25T05:12:34;100110.47;;;-2.55;100.00
56912;BME280;42800;53.928;27.662;2023-01-25T05:15:00;100118.22;;;-2.58;100.00
56912;BME280;42800;53.928;27.662;2023-01-25T05:17:27;100119.53;;;-2.61;100.00
56912;BME280;42800;53.928;27.662;2023-01-25T05:19:53;100123.31;;;-2.57;100.00
56912;BME280;42800;53.928;27.662;2023-01-25T05:22:19;100130.56;;;-2.57;100.00
56912;BME280;42800;53.928;27.662;2023-01-25T05:24:46;100117.47;;;-2.81;100.00
56912;BME280;42800;53.928;27.662;2023-01-25T05:27:15;100218.25;;;-2.68;100.00
56912;BME280;42800;53.928;27.662;2023-01-25T05:29:43;100206.00;;;-2.59;100.00
56912;BME280;42800;53.928;27.662;2023-01-25T05:32:11;100168.63;;;-2.66;100.00
56912;BME280;42800;53.928;27.662;2023-01-25T05:34:39;100184.47;;;-2.64;100.00
56912;BME280;42800;53.928;27.662;2023-01-25T05:37:06;100169.16;;;-2.64;100.00
56912;BME280;42800;53.928;27.662;2023-01-25T05:39:33;100174.34;;;-2.57;100.00
56912;BME280;42800;53.928;27.662;2023-01-25T05:41:59;100162.59;;;-2.51;100.00
56912;BME280;42800;53.928;27.662;2023-01-25T05:44:26;100155.50;;;-2.62;100.00
56912;BME280;42800;53.928;27.662;2023-01-25T05:46:52;100203.84;;;-2.62;100.00
56912;BME280;42800;53.928;27.662;2023-01-25T05:49:18;100213.69;;;-2.68;100.00
56912;BME280;42800;53.928;27.662;2023-01-25T05:51:45;100232.78;;;-2.64;100.00
56912;BME280;42800;53.928;27.662;2023-01-25T05:54:13;100228.09;;;-2.52;100.00
56912;BME280;42800;53.928;27.662;2023-01-25T05:56:40;100185.38;;;-2.53;100.00
56912;BME280;42800;53.928;27.662;2023-01-25T05:59:08;100176.63;;;-2.71;100.00
56912;BME280;42800;53.928;27.662;2023-01-25T06:01:34;100200.44;;;-2.52;100.00
56912;BME280;42800;53.928;27.662;2023-01-25T06:04:01;100208.94;;;-2.33;100.00
56912;BME280;42800;53.928;27.662;2023-01-25T06:06:27;100177.38;;;-2.21;100.00
56912;BME280;42800;53.928;27.662;2023-01-25T06:08:54;100141.66;;;-2.17;100.00
56912;BME280;42800;53.928;27.662;2023-01-25T06:11:22;100133.00;;;-2.24;100.00
56912;BME280;42800;53.928;27.662;2023-01-25T06:13:49;100114.56;;;-2.15;100.00
56912;BME280;42800;53.928;27.662;2023-01-25T06:16:16;100077.16;;;-2.22;100.00
56912;BME280;42800;53.928;27.662;2023-01-25T06:18:43;100098.72;;;-2.49;100.00
56912;BME280;42800;53.928;27.662;2023-01-25T06:21:09;100139.78;;;-2.48;100.00
56912;BME280;42800;53.928;27.662;2023-01-25T06:23:35;100181.44;;;-2.46;100.00
56912;BME280;42800;53.928;27.662;2023-01-25T06:26:04;100172.50;;;-2.56;100.00
56912;BME280;42800;53.928;27.662;2023-01-25T06:28:31;100194.91;;;-2.41;100.00
56912;BME280;42800;53.928;27.662;2023-01-25T06:31:03;100183.94;;;-2.39;100.00
56912;BME280;42800;53.928;27.662;2023-01-25T06:33:29;100198.47;;;-2.35;100.00
56912;BME280;42800;53.928;27.662;2023-01-25T06:35:58;100187.53;;;-2.23;100.00
56912;BME280;42800;53.928;27.662;2023-01-25T06:38:25;100155.00;;;-2.27;100.00
56912;BME280;42800;53.928;27.662;2023-01-25T06:40:51;100152.09;;;-2.25;100.00
56912;BME280;42800;53.928;27.662;2023-01-25T06:43:18;100162.13;;;-2.10;100.00
56912;BME280;42800;53.928;27.662;2023-01-25T06:45:44;100197.88;;;-2.10;100.00
56912;BME280;42800;53.928;27.662;2023-01-25T06:48:10;100170.34;;;-1.90;100.00
56912;BME280;42800;53.928;27.662;2023-01-25T06:50:36;100175.03;;;-1.75;100.00
56912;BME280;42800;53.928;27.662;2023-01-25T06:53:03;100130.66;;;-1.83;100.00
56912;BME280;42800;53.928;27.662;2023-01-25T06:55:29;100123.91;;;-1.80;100.00
56912;BME280;42800;53.928;27.662;2023-01-25T06:57:59;100101.03;;;-1.93;100.00
56912;BME280;42800;53.928;27.662;2023-01-25T07:00:26;100073.34;;;-1.88;100.00
56912;BME280;42800;53.928;27.662;2023-01-25T07:02:52;100056.66;;;-1.91;100.00
56912;BME280;42800;53.928;27.662;2023-01-25T07:05:18;100041.84;;;-1.98;100.00
56912;BME280;42800;53.928;27.662;2023-01-25T07:07:45;100046.94;;;-1.97;100.00
56912;BME280;42800;53.928;27.662;2023-01-25T07:10:11;100051.00;;;-1.99;100.00
56912;BME280;42800;53.928;27.662;2023-01-25T07:12:38;100051.56;;;-1.92;100.00
56912;BME280;42800;53.928;27.662;2023-01-25T07:15:04;100030.81;;;-2.02;100.00
56912;BME280;42800;53.928;27.662;2023-01-25T07:17:32;100048.03;;;-2.03;100.00
56912;BME280;42800;53.928;27.662;2023-01-25T07:19:58;100062.25;;;-2.02;100.00
56912;BME280;42800;53.928;27.662;2023-01-25T07:22:24;100034.88;;;-1.99;100.00
56912;BME280;42800;53.928;27.662;2023-01-25T07:24:50;100067.09;;;-2.42;100.00
56912;BME280;42800;53.928;27.662;2023-01-25T07:27:18;100128.44;;;-2.23;100.00
56912;BME280;42800;53.928;27.662;2023-01-25T07:29:45;100167.06;;;-2.02;100.00
56912;BME280;42800;53.928;27.662;2023-01-25T07:32:11;100132.69;;;-1.95;100.00
56912;BME280;42800;53.928;27.662;2023-01-25T07:34:39;100116.53;;;-2.00;100.00
56912;BME280;42800;53.928;27.662;2023-01-25T07:37:05;100094.84;;;-1.88;100.00
56912;BME280;42800;53.928;27.662;2023-01-25T07:39:31;100093.31;;;-1.74;100.00
56912;BME280;42800;53.928;27.662;2023-01-25T07:41:58;100059.44;;;-1.75;100.00
56912;BME280;42800;53.928;27.662;2023-01-25T07:44:24;100048.44;;;-1.69;100.00
56912;BME280;42800;53.928;27.662;2023-01-25T07:46:52;100010.47;;;-1.87;100.00
56912;BME280;42800;53.928;27.662;2023-01-25T07:49:18;100053.84;;;-1.69;100.00
56912;BME280;42800;53.928;27.662;2023-01-25T07:51:45;99995.84;;;-1.49;100.00
56912;BME280;42800;53.928;27.662;2023-01-25T07:54:11;99932.84;;;-1.63;100.00
56912;BME280;42800;53.928;27.662;2023-01-25T07:56:38;99937.19;;;-1.52;100.00
56912;BME280;42800;53.928;27.662;2023-01-25T07:59:05;99896.59;;;-1.40;100.00
56912;BME280;42800;53.928;27.662;2023-01-25T08:01:33;99865.41;;;-1.31;100.00
56912;BME280;42800;53.928;27.662;2023-01-25T08:04:00;99874.28;;;-1.26;100.00
56912;BME280;42800;53.928;27.662;2023-01-25T08:06:27;99860.81;;;-1.10;100.00
56912;BME280;42800;53.928;27.662;2023-01-25T08:09:03;99837.69;;;-1.27;100.00
56912;BME280;42800;53.928;27.662;2023-01-25T08:11:30;99849.25;;;-1.42;100.00
56912;BME280;42800;53.928;27.662;2023-01-25T08:13:57;99840.63;;;-1.33;100.00
56912;BME280;42800;53.928;27.662;2023-01-25T08:16:27;99838.22;;;-1.09;100.00
56912;BME280;42800;53.928;27.662;2023-01-25T08:18:54;99826.41;;;-1.29;100.00
56912;BME280;42800;53.928;27.662;2023-01-25T08:21:22;99829.34;;;-1.10;100.00
56912;BME280;42800;53.928;27.662;2023-01-25T08:23:49;99827.75;;;-1.42;100.00
56912;BME280;42800;53.928;27.662;2023-01-25T08:26:17;99843.59;;;-1.09;100.00
56912;BME280;42800;53.928;27.662;2023-01-25T08:28:43;99829.81;;;-0.87;100.00
56912;BME280;42800;53.928;27.662;2023-01-25T08:31:11;99815.59;;;-1.08;100.00
56912;BME280;42800;53.928;27.662;2023-01-25T08:33:38;99843.31;;;-1.03;100.00
56912;BME280;42800;53.928;27.662;2023-01-25T08:36:05;99824.44;;;-0.82;100.00
56912;BME280;42800;53.928;27.662;2023-01-25T08:38:33;99802.72;;;-1.16;100.00
56912;BME280;42800;53.928;27.662;2023-01-25T08:41:04;99832.31;;;-1.52;100.00
56912;BME280;42800;53.928;27.662;2023-01-25T08:43:31;99860.28;;;-1.02;100.00
56912;BME280;42800;53.928;27.662;2023-01-25T08:45:57;99822.66;;;-1.43;100.00
56912;BME280;42800;53.928;27.662;2023-01-25T08:48:24;99851.94;;;-1.11;100.00
56912;BME280;42800;53.928;27.662;2023-01-25T08:50:50;99820.72;;;-1.17;100.00
56912;BME280;42800;53.928;27.662;2023-01-25T08:53:16;99815.38;;;-1.63;100.00
56912;BME280;42800;53.928;27.662;2023-01-25T08:55:43;99851.94;;;-1.31;100.00
56912;BME280;42800;53.928;27.662;2023-01-25T08:58:09;99836.34;;;-1.09;100.00
56912;BME280;42800;53.928;27.662;2023-01-25T09:00:37;99833.09;;;-0.96;100.00
56912;BME280;42800;53.928;27.662;2023-01-25T09:03:03;99822.91;;;-1.19;100.00
56912;BME280;42800;53.928;27.662;2023-01-25T09:05:29;99824.50;;;-1.33;100.00
56912;BME280;42800;53.928;27.662;2023-01-25T09:07:55;99833.38;;;-1.48;100.00
56912;BME280;42800;53.928;27.662;2023-01-25T09:10:23;99849.53;;;-1.38;100.00
56912;BME280;42800;53.928;27.662;2023-01-25T09:12:49;99852.75;;;-1.31;100.00
56912;BME280;42800;53.928;27.662;2023-01-25T09:15:16;99847.38;;;-1.15;100.00
56912;BME280;42800;53.928;27.662;2023-01-25T09:17:43;99830.38;;;-0.90;100.00
56912;BME280;42800;53.928;27.662;2023-01-25T09:20:10;99791.38;;;-1.13;100.00
56912;BME280;42800;53.928;27.662;2023-01-25T09:22:36;99783.56;;;-0.95;100.00
56912;BME280;42800;53.928;27.662;2023-01-25T09:25:04;99774.34;;;-0.73;100.00
56912;BME280;42800;53.928;27.662;2023-01-25T09:27:30;99760.63;;;-0.77;100.00
56912;BME280;42800;53.928;27.662;2023-01-25T09:29:56;99771.25;;;-1.47;100.00
56912;BME280;42800;53.928;27.662;2023-01-25T09:32:23;99802.47;;;-1.76;100.00
56912;BME280;42800;53.928;27.662;2023-01-25T09:34:49;99850.88;;;-1.66;100.00
56912;BME280;42800;53.928;27.662;2023-01-25T09:37:16;99870.22;;;-1.64;100.00
56912;BME280;42800;53.928;27.662;2023-01-25T09:39:42;99891.75;;;-1.59;100.00
56912;BME280;42800;53.928;27.662;2023-01-25T09:45:19;99876.41;;;-1.69;100.00
56912;BME280;42800;53.928;27.662;2023-01-25T09:47:53;99896.88;;;-1.32;100.00
56912;BME280;42800;53.928;27.662;2023-01-25T09:50:31;99906.28;;;-1.29;100.00
56912;BME280;42800;53.928;27.662;2023-01-25T09:53:24;99908.97;;;-1.24;100.00
56912;BME280;42800;53.928;27.662;2023-01-25T09:55:54;99875.34;;;-0.96;100.00
56912;BME280;42800;53.928;27.662;2023-01-25T09:58:29;99850.00;;;-0.85;100.00
56912;BME280;42800;53.928;27.662;2023-01-25T10:01:13;99815.97;;;-0.50;100.00
56912;BME280;42800;53.928;27.662;2023-01-25T10:03:46;99767.44;;;-1.20;100.00
56912;BME280;42800;53.928;27.662;2023-01-25T10:06:16;99758.47;;;-0.80;100.00
56912;BME280;42800;53.928;27.662;2023-01-25T10:08:50;99755.66;;;-1.34;100.00
56912;BME280;42800;53.928;27.662;2023-01-25T10:11:22;99794.13;;;-1.59;100.00
56912;BME280;42800;53.928;27.662;2023-01-25T10:13:49;99802.19;;;-1.54;100.00
56912;BME280;42800;53.928;27.662;2023-01-25T10:16:20;99790.66;;;-1.50;100.00
56912;BME280;42800;53.928;27.662;2023-01-25T10:18:55;99804.53;;;-0.86;100.00
56912;BME280;42800;53.928;27.662;2023-01-25T10:21:27;99796.53;;;-1.22;100.00
56912;BME280;42800;53.928;27.662;2023-01-25T10:24:30;99789.28;;;-1.57;100.00
56912;BME280;42800;53.928;27.662;2023-01-25T10:27:02;99831.78;;;-1.29;100.00
56912;BME280;42800;53.928;27.662;2023-01-25T10:29:35;99836.06;;;-1.38;100.00
56912;BME280;42800;53.928;27.662;2023-01-25T10:32:12;99842.16;;;-0.71;100.00
56912;BME280;42800;53.928;27.662;2023-01-25T10:34:46;99775.06;;;-0.57;100.00
56912;BME280;42800;53.928;27.662;2023-01-25T10:37:14;99728.97;;;-0.51;100.00
56912;BME280;42800;53.928;27.662;2023-01-25T10:39:52;99713.13;;;-0.57;100.00
56912;BME280;42800;53.928;27.662;2023-01-25T10:42:21;99720.16;;;-0.61;100.00
56912;BME280;42800;53.928;27.662;2023-01-25T10:44:50;99692.44;;;-0.62;100.00
56912;BME280;42800;53.928;27.662;2023-01-25T10:47:22;99690.75;;;-0.53;100.00
56912;BME280;42800;53.928;27.662;2023-01-25T10:49:51;99674.28;;;-0.96;100.00
56912;BME280;42800;53.928;27.662;2023-01-25T10:52:21;99698.88;;;-1.23;100.00
56912;BME280;42800;53.928;27.662;2023-01-25T10:57:32;99710.03;;;-0.85;100.00
56912;BME280;42800;53.928;27.662;2023-01-25T11:00:01;99699.19;;;-0.69;100.00
56912;BME280;42800;53.928;27.662;2023-01-25T11:02:38;99709.38;;;-0.56;100.00
56912;BME280;42800;53.928;27.662;2023-01-25T11:05:29;99699.19;;;-0.69;100.00
56912;BME280;42800;53.928;27.662;2023-01-25T11:07:57;99683.59;;;-0.28;100.00
56912;BME280;42800;53.928;27.662;2023-01-25T11:10:27;99653.06;;;-0.53;100.00
56912;BME280;42800;53.928;27.662;2023-01-25T11:13:19;99640.88;;;-0.11;100.00
56912;BME280;42800;53.928;27.662;2023-01-25T11:15:48;99624.53;;;-0.19;100.00
56912;BME280;42800;53.928;27.662;2023-01-25T11:18:19;99616.44;;;-0.19;100.00
56912;BME280;42800;53.928;27.662;2023-01-25T11:20:46;99604.81;;;-0.49;100.00
56912;BME280;42800;53.928;27.662;2023-01-25T11:23:21;99619.88;;;-0.43;100.00
56912;BME280;42800;53.928;27.662;2023-01-25T11:25:48;99622.56;;;-0.87;100.00
56912;BME280;42800;53.928;27.662;2023-01-25T11:28:17;99613.31;;;-0.37;100.00
56912;BME280;42800;53.928;27.662;2023-01-25T11:30:44;99613.50;;;-0.23;100.00
56912;BME280;42800;53.928;27.662;2023-01-25T11:33:11;99607.59;;;-0.25;100.00
56912;BME280;42800;53.928;27.662;2023-01-25T11:35:49;99613.53;;;-0.28;100.00
56912;BME280;42800;53.928;27.662;2023-01-25T11:38:21;99604.81;;;-0.15;100.00
56912;BME280;42800;53.928;27.662;2023-01-25T11:40:50;99595.91;;;-0.15;100.00
56912;BME280;42800;53.928;27.662;2023-01-25T11:43:28;99587.31;;;-0.46;100.00
56912;BME280;42800;53.928;27.662;2023-01-25T11:46:20;99604.03;;;-0.50;100.00
56912;BME280;42800;53.928;27.662;2023-01-25T11:49:05;99614.41;;;-0.38;100.00
56912;BME280;42800;53.928;27.662;2023-01-25T11:51:40;99606.31;;;-0.33;100.00
56912;BME280;42800;53.928;27.662;2023-01-25T11:54:24;99583.81;;;0.11;100.00
56912;BME280;42800;53.928;27.662;2023-01-25T11:56:57;99579.22;;;-0.46;100.00
56912;BME280;42800;53.928;27.662;2023-01-25T11:59:38;99575.91;;;-0.38;100.00
56912;BME280;42800;53.928;27.662;2023-01-25T12:02:20;99580.75;;;-0.75;100.00
56912;BME280;42800;53.928;27.662;2023-01-25T12:05:11;99614.94;;;-0.36;100.00
56912;BME280;42800;53.928;27.662;2023-01-25T12:07:50;99608.88;;;-0.52;100.00
56912;BME280;42800;53.928;27.662;2023-01-25T12:10:25;99605.25;;;-0.03;100.00
56912;BME280;42800;53.928;27.662;2023-01-25T12:12:58;99600.97;;;-0.09;100.00
56912;BME280;42800;53.928;27.662;2023-01-25T12:15:41;99604.47;;;-0.08;100.00
56912;BME280;42800;53.928;27.662;2023-01-25T12:21:05;99613.50;;;0.06;100.00
56912;BME280;42800;53.928;27.662;2023-01-25T12:23:48;99562.03;;;0.03;100.00
56912;BME280;42800;53.928;27.662;2023-01-25T12:26:24;99559.66;;;0.25;100.00
56912;BME280;42800;53.928;27.662;2023-01-25T12:28:58;99546.59;;;0.37;100.00
56912;BME280;42800;53.928;27.662;2023-01-25T12:31:35;99539.88;;;0.35;100.00
56912;BME280;42800;53.928;27.662;2023-01-25T12:34:06;99535.91;;;0.27;100.00
56912;BME280;42800;53.928;27.662;2023-01-25T12:36:36;99520.34;;;0.19;100.00
56912;BME280;42800;53.928;27.662;2023-01-25T12:39:04;99525.63;;;0.29;100.00
56912;BME280;42800;53.928;27.662;2023-01-25T12:41:39;99528.28;;;0.34;100.00
56912;BME280;42800;53.928;27.662;2023-01-25T12:44:12;99537.50;;;0.28;100.00
56912;BME280;42800;53.928;27.662;2023-01-25T12:46:44;99526.78;;;0.23;100.00
56912;BME280;42800;53.928;27.662;2023-01-25T12:49:19;99510.72;;;0.37;100.00
56912;BME280;42800;53.928;27.662;2023-01-25T12:51:48;99520.09;;;0.20;100.00